sensor_id;sensor_type;location;lat;lon;timestamp;temperature;humidity
46590;DHT22;32313;48.722;9.362;2023-08-31T00:02:10;12.70;99.90
46590;DHT22;32313;48.722;9.362;2023-08-31T00:04:35;12.70;99.90
46590;DHT22;32313;48.722;9.362;2023-08-31T00:07:01;12.70;99.90
46590;DHT22;32313;48.722;9.362;2023-08-31T00:09:27;12.60;99.90
46590;DHT22;32313;48.722;9.362;2023-08-31T00:11:53;12.60;99.90
46590;DHT22;32313;48.722;9.362;2023-08-31T00:14:19;12.60;99.90
46590;DHT22;32313;48.722;9.362;2023-08-31T00:16:44;12.60;99.90
46590;DHT22;32313;48.722;9.362;2023-08-31T00:19:12;12.60;99.90
46590;DHT22;32313;48.722;9.362;2023-08-31T00:21:40;12.60;99.90
46590;DHT22;32313;48.722;9.362;2023-08-31T00:24:05;12.60;99.90
46590;DHT22;32313;48.722;9.362;2023-08-31T00:26:32;12.60;99.90
46590;DHT22;32313;48.722;9.362;2023-08-31T00:28:59;12.50;99.90
46590;DHT22;32313;48.722;9.362;2023-08-31T00:31:24;12.50;99.90
46590;DHT22;32313;48.722;9.362;2023-08-31T00:33:52;12.50;99.90
46590;DHT22;32313;48.722;9.362;2023-08-31T00:36:17;12.50;99.90
46590;DHT22;32313;48.722;9.362;2023-08-31T00:38:43;12.40;99.90
46590;DHT22;32313;48.722;9.362;2023-08-31T00:41:10;12.50;99.90
46590;DHT22;32313;48.722;9.362;2023-08-31T00:43:35;12.50;99.90
46590;DHT22;32313;48.722;9.362;2023-08-31T00:46:02;12.50;99.90
46590;DHT22;32313;48.722;9.362;2023-08-31T00:48:28;12.50;99.90
46590;DHT22;32313;48.722;9.362;2023-08-31T00:50:54;12.50;99.90
46590;DHT22;32313;48.722;9.362;2023-08-31T00:53:20;12.50;99.90
46590;DHT22;32313;48.722;9.362;2023-08-31T00:55:47;12.50;99.90
46590;DHT22;32313;48.722;9.362;2023-08-31T00:58:13;12.40;99.90
46590;DHT22;32313;48.722;9.362;2023-08-31T01:00:50;12.50;99.90
46590;DHT22;32313;48.722;9.362;2023-08-31T01:06:24;12.50;99.90
46590;DHT22;32313;48.722;9.362;2023-08-31T01:09:21;12.40;99.90
46590;DHT22;32313;48.722;9.362;2023-08-31T01:11:56;12.40;99.90
46590;DHT22;32313;48.722;9.362;2023-08-31T01:14:27;12.30;99.90
46590;DHT22;32313;48.722;9.362;2023-08-31T01:16:57;12.20;99.90
46590;DHT22;32313;48.722;9.362;2023-08-31T01:22:13;11.90;99.90
46590;DHT22;32313;48.722;9.362;2023-08-31T01:24:43;11.80;99.90
46590;DHT22;32313;48.722;9.362;2023-08-31T01:27:09;11.70;99.90
46590;DHT22;32313;48.722;9.362;2023-08-31T01:29:35;11.60;99.90
46590;DHT22;32313;48.722;9.362;2023-08-31T01:32:05;11.50;99.90
46590;DHT22;32313;48.722;9.362;2023-08-31T01:34:31;11.40;99.90
46590;DHT22;32313;48.722;9.362;2023-08-31T01:37:02;11.40;99.90
46590;DHT22;32313;48.722;9.362;2023-08-31T01:39:41;11.40;99.90
46590;DHT22;32313;48.722;9.362;2023-08-31T01:42:11;11.50;99.90
46590;DHT22;32313;48.722;9.362;2023-08-31T01:44:39;11.50;99.90
46590;DHT22;32313;48.722;9.362;2023-08-31T01:47:06;11.50;99.90
46590;DHT22;32313;48.722;9.362;2023-08-31T01:49:50;11.50;99.90
46590;DHT22;32313;48.722;9.362;2023-08-31T01:52:16;11.40;99.90
46590;DHT22;32313;48.722;9.362;2023-08-31T01:54:42;11.40;99.90
46590;DHT22;32313;48.722;9.362;2023-08-31T01:57:08;11.30;99.90
46590;DHT22;32313;48.722;9.362;2023-08-31T01:59:43;11.20;99.90
46590;DHT22;32313;48.722;9.362;2023-08-31T02:02:09;11.20;99.90
46590;DHT22;32313;48.722;9.362;2023-08-31T02:04:35;11.20;99.90
46590;DHT22;32313;48.722;9.362;2023-08-31T02:07:01;11.20;99.90
46590;DHT22;32313;48.722;9.362;2023-08-31T02:09:26;11.30;99.90
46590;DHT22;32313;48.722;9.362;2023-08-31T02:11:52;11.40;99.90
46590;DHT22;32313;48.722;9.362;2023-08-31T02:14:18;11.40;99.90
46590;DHT22;32313;48.722;9.362;2023-08-31T02:16:44;11.40;99.90
46590;DHT22;32313;48.722;9.362;2023-08-31T02:19:10;11.50;99.90
46590;DHT22;32313;48.722;9.362;2023-08-31T02:21:36;11.50;99.90
46590;DHT22;32313;48.722;9.362;2023-08-31T02:24:02;11.50;99.90
46590;DHT22;32313;48.722;9.362;2023-08-31T02:26:28;11.50;99.90
46590;DHT22;32313;48.722;9.362;2023-08-31T02:28:54;11.50;99.90
46590;DHT22;32313;48.722;9.362;2023-08-31T02:31:19;11.50;99.90
46590;DHT22;32313;48.722;9.362;2023-08-31T02:33:46;11.50;99.90
46590;DHT22;32313;48.722;9.362;2023-08-31T02:36:12;11.40;99.90
46590;DHT22;32313;48.722;9.362;2023-08-31T02:38:38;11.40;99.90
46590;DHT22;32313;48.722;9.362;2023-08-31T02:41:05;11.40;99.90
46590;DHT22;32313;48.722;9.362;2023-08-31T02:43:31;11.40;99.90
46590;DHT22;32313;48.722;9.362;2023-08-31T02:46:01;11.40;99.90
46590;DHT22;32313;48.722;9.362;2023-08-31T02:48:26;11.40;99.90
46590;DHT22;32313;48.722;9.362;2023-08-31T02:50:53;11.50;99.90
46590;DHT22;32313;48.722;9.362;2023-08-31T02:53:19;11.50;99.90
46590;DHT22;32313;48.722;9.362;2023-08-31T02:55:45;11.50;99.90
46590;DHT22;32313;48.722;9.362;2023-08-31T02:58:11;11.50;99.90
46590;DHT22;32313;48.722;9.362;2023-08-31T03:00:36;11.40;99.90
46590;DHT22;32313;48.722;9.362;2023-08-31T03:03:08;11.40;99.90
46590;DHT22;32313;48.722;9.362;2023-08-31T03:05:34;11.30;99.90
46590;DHT22;32313;48.722;9.362;2023-08-31T03:08:00;11.30;99.90
46590;DHT22;32313;48.722;9.362;2023-08-31T03:10:26;11.30;99.90
46590;DHT22;32313;48.722;9.362;2023-08-31T03:12:51;11.20;99.90
46590;DHT22;32313;48.722;9.362;2023-08-31T03:15:17;11.20;99.90
46590;DHT22;32313;48.722;9.362;2023-08-31T03:17:43;11.10;99.90
46590;DHT22;32313;48.722;9.362;2023-08-31T03:20:09;11.10;99.90
46590;DHT22;32313;48.722;9.362;2023-08-31T03:22:35;11.00;99.90
46590;DHT22;32313;48.722;9.362;2023-08-31T03:25:02;11.00;99.90
46590;DHT22;32313;48.722;9.362;2023-08-31T03:27:27;11.00;99.90
46590;DHT22;32313;48.722;9.362;2023-08-31T03:29:53;10.90;99.90
46590;DHT22;32313;48.722;9.362;2023-08-31T03:32:19;11.00;99.90
46590;DHT22;32313;48.722;9.362;2023-08-31T03:34:44;11.00;99.90
46590;DHT22;32313;48.722;9.362;2023-08-31T03:37:10;11.10;99.90
46590;DHT22;32313;48.722;9.362;2023-08-31T03:39:38;11.10;99.90
46590;DHT22;32313;48.722;9.362;2023-08-31T03:42:03;11.10;99.90
46590;DHT22;32313;48.722;9.362;2023-08-31T03:44:29;11.10;99.90
46590;DHT22;32313;48.722;9.362;2023-08-31T03:46:55;11.10;99.90
46590;DHT22;32313;48.722;9.362;2023-08-31T03:49:20;11.20;99.90
46590;DHT22;32313;48.722;9.362;2023-08-31T03:51:46;11.20;99.90
46590;DHT22;32313;48.722;9.362;2023-08-31T03:54:12;11.20;99.90
46590;DHT22;32313;48.722;9.362;2023-08-31T03:56:39;11.20;99.90
46590;DHT22;32313;48.722;9.362;2023-08-31T03:59:05;11.20;99.90
46590;DHT22;32313;48.722;9.362;2023-08-31T04:01:32;11.20;99.90
46590;DHT22;32313;48.722;9.362;2023-08-31T04:03:59;11.20;99.90
46590;DHT22;32313;48.722;9.362;2023-08-31T04:06:24;11.20;99.90
46590;DHT22;32313;48.722;9.362;2023-08-31T04:08:50;11.20;99.90
46590;DHT22;32313;48.722;9.362;2023-08-31T04:11:16;11.30;99.90
46590;DHT22;32313;48.722;9.362;2023-08-31T04:13:42;11.30;99.90
46590;DHT22;32313;48.722;9.362;2023-08-31T04:16:07;11.30;99.90
46590;DHT22;32313;48.722;9.362;2023-08-31T04:18:33;11.40;99.90
46590;DHT22;32313;48.722;9.362;2023-08-31T04:20:59;11.40;99.90
46590;DHT22;32313;48.722;9.362;2023-08-31T04:23:27;11.40;99.90
46590;DHT22;32313;48.722;9.362;2023-08-31T04:25:52;11.40;99.90
46590;DHT22;32313;48.722;9.362;2023-08-31T04:28:19;11.30;99.90
46590;DHT22;32313;48.722;9.362;2023-08-31T04:30:44;11.30;99.90
46590;DHT22;32313;48.722;9.362;2023-08-31T04:33:10;11.30;99.90
46590;DHT22;32313;48.722;9.362;2023-08-31T04:35:36;11.20;99.90
46590;DHT22;32313;48.722;9.362;2023-08-31T04:38:02;11.20;99.90
46590;DHT22;32313;48.722;9.362;2023-08-31T04:40:28;11.20;99.90
46590;DHT22;32313;48.722;9.362;2023-08-31T04:42:56;11.20;99.90
46590;DHT22;32313;48.722;9.362;2023-08-31T04:45:22;11.20;99.90
46590;DHT22;32313;48.722;9.362;2023-08-31T04:47:48;11.20;99.90
46590;DHT22;32313;48.722;9.362;2023-08-31T04:50:16;11.20;99.90
46590;DHT22;32313;48.722;9.362;2023-08-31T04:52:42;11.20;99.90
46590;DHT22;32313;48.722;9.362;2023-08-31T04:55:08;11.20;99.90
46590;DHT22;32313;48.722;9.362;2023-08-31T04:57:34;11.20;99.90
46590;DHT22;32313;48.722;9.362;2023-08-31T05:00:00;11.30;99.90
46590;DHT22;32313;48.722;9.362;2023-08-31T05:02:25;11.30;99.90
46590;DHT22;32313;48.722;9.362;2023-08-31T05:04:51;11.40;99.90
46590;DHT22;32313;48.722;9.362;2023-08-31T05:07:17;11.40;99.90
46590;DHT22;32313;48.722;9.362;2023-08-31T05:09:42;11.50;99.90
46590;DHT22;32313;48.722;9.362;2023-08-31T05:12:08;11.50;99.90
46590;DHT22;32313;48.722;9.362;2023-08-31T05:14:34;11.60;99.90
46590;DHT22;32313;48.722;9.362;2023-08-31T05:17:03;11.60;99.90
46590;DHT22;32313;48.722;9.362;2023-08-31T05:19:30;11.60;99.90
46590;DHT22;32313;48.722;9.362;2023-08-31T05:21:56;11.70;99.90
46590;DHT22;32313;48.722;9.362;2023-08-31T05:24:21;11.70;99.90
46590;DHT22;32313;48.722;9.362;2023-08-31T05:26:48;11.70;99.90
46590;DHT22;32313;48.722;9.362;2023-08-31T05:29:14;11.80;99.90
46590;DHT22;32313;48.722;9.362;2023-08-31T05:31:39;11.80;99.90
46590;DHT22;32313;48.722;9.362;2023-08-31T05:34:05;11.80;99.90
46590;DHT22;32313;48.722;9.362;2023-08-31T05:36:31;11.90;99.90
46590;DHT22;32313;48.722;9.362;2023-08-31T05:38:56;11.90;99.90
46590;DHT22;32313;48.722;9.362;2023-08-31T05:41:22;11.90;99.90
46590;DHT22;32313;48.722;9.362;2023-08-31T05:43:48;11.90;99.90
46590;DHT22;32313;48.722;9.362;2023-08-31T05:46:14;12.00;99.90
46590;DHT22;32313;48.722;9.362;2023-08-31T05:48:39;12.00;99.90
46590;DHT22;32313;48.722;9.362;2023-08-31T05:51:05;12.10;99.90
46590;DHT22;32313;48.722;9.362;2023-08-31T05:53:31;12.10;99.90
46590;DHT22;32313;48.722;9.362;2023-08-31T05:55:57;12.20;99.90
46590;DHT22;32313;48.722;9.362;2023-08-31T05:58:33;12.30;99.90
46590;DHT22;32313;48.722;9.362;2023-08-31T06:00:59;12.40;99.90
46590;DHT22;32313;48.722;9.362;2023-08-31T06:03:25;12.40;99.90
46590;DHT22;32313;48.722;9.362;2023-08-31T06:05:51;12.40;99.90
46590;DHT22;32313;48.722;9.362;2023-08-31T06:08:16;12.40;99.90
46590;DHT22;32313;48.722;9.362;2023-08-31T06:10:42;12.30;99.90
46590;DHT22;32313;48.722;9.362;2023-08-31T06:13:08;12.40;99.90
46590;DHT22;32313;48.722;9.362;2023-08-31T06:15:33;12.40;99.90
46590;DHT22;32313;48.722;9.362;2023-08-31T06:17:59;12.50;99.90
46590;DHT22;32313;48.722;9.362;2023-08-31T06:20:25;12.60;99.90
46590;DHT22;32313;48.722;9.362;2023-08-31T06:22:50;12.60;99.90
46590;DHT22;32313;48.722;9.362;2023-08-31T06:25:16;12.70;99.90
46590;DHT22;32313;48.722;9.362;2023-08-31T06:27:44;12.80;99.90
46590;DHT22;32313;48.722;9.362;2023-08-31T06:30:10;12.90;99.90
46590;DHT22;32313;48.722;9.362;2023-08-31T06:32:46;13.00;99.90
46590;DHT22;32313;48.722;9.362;2023-08-31T06:35:13;13.00;99.90
46590;DHT22;32313;48.722;9.362;2023-08-31T06:37:39;13.10;99.90
46590;DHT22;32313;48.722;9.362;2023-08-31T06:40:06;13.20;99.90
46590;DHT22;32313;48.722;9.362;2023-08-31T06:42:34;13.40;99.90
46590;DHT22;32313;48.722;9.362;2023-08-31T06:45:00;13.50;99.90
46590;DHT22;32313;48.722;9.362;2023-08-31T06:47:25;13.90;99.90
46590;DHT22;32313;48.722;9.362;2023-08-31T06:49:51;14.00;99.90
46590;DHT22;32313;48.722;9.362;2023-08-31T06:52:16;14.10;99.90
46590;DHT22;32313;48.722;9.362;2023-08-31T06:54:43;14.30;99.90
46590;DHT22;32313;48.722;9.362;2023-08-31T06:57:08;14.40;99.90
46590;DHT22;32313;48.722;9.362;2023-08-31T06:59:34;14.30;99.90
46590;DHT22;32313;48.722;9.362;2023-08-31T07:02:00;14.30;99.90
46590;DHT22;32313;48.722;9.362;2023-08-31T07:04:27;14.30;99.90
46590;DHT22;32313;48.722;9.362;2023-08-31T07:06:52;14.40;99.90
46590;DHT22;32313;48.722;9.362;2023-08-31T07:09:18;14.50;99.90
46590;DHT22;32313;48.722;9.362;2023-08-31T07:11:44;14.50;99.90
46590;DHT22;32313;48.722;9.362;2023-08-31T07:14:09;14.50;99.90
46590;DHT22;32313;48.722;9.362;2023-08-31T07:16:35;14.40;99.90
46590;DHT22;32313;48.722;9.362;2023-08-31T07:19:01;14.40;99.90
46590;DHT22;32313;48.722;9.362;2023-08-31T07:21:28;15.00;99.90
46590;DHT22;32313;48.722;9.362;2023-08-31T07:23:54;15.80;99.90
46590;DHT22;32313;48.722;9.362;2023-08-31T07:26:21;16.80;99.90
46590;DHT22;32313;48.722;9.362;2023-08-31T07:28:46;17.40;99.90
46590;DHT22;32313;48.722;9.362;2023-08-31T07:31:12;17.80;99.90
46590;DHT22;32313;48.722;9.362;2023-08-31T07:33:38;18.00;99.90
46590;DHT22;32313;48.722;9.362;2023-08-31T07:36:05;18.10;99.90
46590;DHT22;32313;48.722;9.362;2023-08-31T07:38:32;17.80;99.90
46590;DHT22;32313;48.722;9.362;2023-08-31T07:40:58;17.50;99.90
46590;DHT22;32313;48.722;9.362;2023-08-31T07:43:25;17.00;99.90
46590;DHT22;32313;48.722;9.362;2023-08-31T07:45:52;16.80;99.90
46590;DHT22;32313;48.722;9.362;2023-08-31T07:48:19;16.90;99.90
46590;DHT22;32313;48.722;9.362;2023-08-31T07:50:45;16.80;99.90
46590;DHT22;32313;48.722;9.362;2023-08-31T07:53:11;16.70;99.90
46590;DHT22;32313;48.722;9.362;2023-08-31T07:55:37;16.70;99.90
46590;DHT22;32313;48.722;9.362;2023-08-31T07:58:02;16.70;99.90
46590;DHT22;32313;48.722;9.362;2023-08-31T08:00:28;16.80;99.90
46590;DHT22;32313;48.722;9.362;2023-08-31T08:02:54;17.00;99.90
46590;DHT22;32313;48.722;9.362;2023-08-31T08:05:20;17.40;99.90
46590;DHT22;32313;48.722;9.362;2023-08-31T08:07:45;17.90;99.90
46590;DHT22;32313;48.722;9.362;2023-08-31T08:10:12;18.10;99.90
46590;DHT22;32313;48.722;9.362;2023-08-31T08:12:38;18.60;99.90
46590;DHT22;32313;48.722;9.362;2023-08-31T08:15:05;19.20;99.90
46590;DHT22;32313;48.722;9.362;2023-08-31T08:17:32;19.20;99.90
46590;DHT22;32313;48.722;9.362;2023-08-31T08:19:58;19.80;99.90
46590;DHT22;32313;48.722;9.362;2023-08-31T08:22:24;19.90;99.90
46590;DHT22;32313;48.722;9.362;2023-08-31T08:24:50;20.20;99.90
46590;DHT22;32313;48.722;9.362;2023-08-31T08:27:16;20.30;99.90
46590;DHT22;32313;48.722;9.362;2023-08-31T08:29:43;20.50;99.90
46590;DHT22;32313;48.722;9.362;2023-08-31T08:32:09;20.70;99.90
46590;DHT22;32313;48.722;9.362;2023-08-31T08:34:35;20.90;99.90
46590;DHT22;32313;48.722;9.362;2023-08-31T08:37:00;21.00;99.90
46590;DHT22;32313;48.722;9.362;2023-08-31T08:39:26;21.30;99.90
46590;DHT22;32313;48.722;9.362;2023-08-31T08:41:53;20.80;99.90
46590;DHT22;32313;48.722;9.362;2023-08-31T08:44:21;20.10;99.90
46590;DHT22;32313;48.722;9.362;2023-08-31T08:46:49;19.70;99.90
46590;DHT22;32313;48.722;9.362;2023-08-31T08:49:16;19.10;99.90
46590;DHT22;32313;48.722;9.362;2023-08-31T08:51:41;18.60;99.90
46590;DHT22;32313;48.722;9.362;2023-08-31T08:54:08;18.40;99.90
46590;DHT22;32313;48.722;9.362;2023-08-31T08:56:33;18.10;99.90
46590;DHT22;32313;48.722;9.362;2023-08-31T08:59:00;18.20;99.90
46590;DHT22;32313;48.722;9.362;2023-08-31T09:01:26;18.30;99.90
46590;DHT22;32313;48.722;9.362;2023-08-31T09:03:52;18.20;99.90
46590;DHT22;32313;48.722;9.362;2023-08-31T09:06:20;18.70;99.90
46590;DHT22;32313;48.722;9.362;2023-08-31T09:08:55;18.80;99.90
46590;DHT22;32313;48.722;9.362;2023-08-31T09:11:22;18.60;99.90
46590;DHT22;32313;48.722;9.362;2023-08-31T09:13:49;18.40;99.90
46590;DHT22;32313;48.722;9.362;2023-08-31T09:16:25;18.20;99.90
46590;DHT22;32313;48.722;9.362;2023-08-31T09:18:58;18.30;99.90
46590;DHT22;32313;48.722;9.362;2023-08-31T09:21:37;18.30;99.90
46590;DHT22;32313;48.722;9.362;2023-08-31T09:24:05;18.10;99.90
46590;DHT22;32313;48.722;9.362;2023-08-31T09:26:43;18.30;99.90
46590;DHT22;32313;48.722;9.362;2023-08-31T09:29:09;18.00;99.90
46590;DHT22;32313;48.722;9.362;2023-08-31T09:31:36;17.60;99.90
46590;DHT22;32313;48.722;9.362;2023-08-31T09:34:03;17.50;99.90
46590;DHT22;32313;48.722;9.362;2023-08-31T09:36:28;17.50;99.90
46590;DHT22;32313;48.722;9.362;2023-08-31T09:38:57;17.50;99.90
46590;DHT22;32313;48.722;9.362;2023-08-31T09:41:24;18.00;99.90
46590;DHT22;32313;48.722;9.362;2023-08-31T09:43:49;18.60;99.90
46590;DHT22;32313;48.722;9.362;2023-08-31T09:46:15;19.80;99.90
46590;DHT22;32313;48.722;9.362;2023-08-31T09:48:42;20.20;99.90
46590;DHT22;32313;48.722;9.362;2023-08-31T09:51:10;20.00;99.90
46590;DHT22;32313;48.722;9.362;2023-08-31T09:53:37;19.70;99.90
46590;DHT22;32313;48.722;9.362;2023-08-31T09:56:05;20.20;99.90
46590;DHT22;32313;48.722;9.362;2023-08-31T09:58:31;20.10;99.90
46590;DHT22;32313;48.722;9.362;2023-08-31T10:00:58;19.60;99.90
46590;DHT22;32313;48.722;9.362;2023-08-31T10:03:26;19.20;99.90
46590;DHT22;32313;48.722;9.362;2023-08-31T10:05:54;19.80;99.90
46590;DHT22;32313;48.722;9.362;2023-08-31T10:08:20;20.00;99.90
46590;DHT22;32313;48.722;9.362;2023-08-31T10:10:46;20.10;99.90
46590;DHT22;32313;48.722;9.362;2023-08-31T10:13:20;20.00;99.90
46590;DHT22;32313;48.722;9.362;2023-08-31T10:15:49;20.10;99.90
46590;DHT22;32313;48.722;9.362;2023-08-31T10:18:15;20.20;99.90
46590;DHT22;32313;48.722;9.362;2023-08-31T10:20:43;19.80;99.90
46590;DHT22;32313;48.722;9.362;2023-08-31T10:23:10;19.50;99.90
46590;DHT22;32313;48.722;9.362;2023-08-31T10:28:23;21.40;99.90
46590;DHT22;32313;48.722;9.362;2023-08-31T10:31:18;21.30;99.90
46590;DHT22;32313;48.722;9.362;2023-08-31T10:33:45;21.00;99.70
46590;DHT22;32313;48.722;9.362;2023-08-31T10:36:17;20.40;99.90
46590;DHT22;32313;48.722;9.362;2023-08-31T10:39:36;20.10;99.90
46590;DHT22;32313;48.722;9.362;2023-08-31T10:41:35;19.80;99.40
46590;DHT22;32313;48.722;9.362;2023-08-31T10:44:02;19.40;99.90
46590;DHT22;32313;48.722;9.362;2023-08-31T10:46:43;19.80;99.90
46590;DHT22;32313;48.722;9.362;2023-08-31T10:51:36;20.90;99.30
46590;DHT22;32313;48.722;9.362;2023-08-31T10:56:30;20.90;98.90
46590;DHT22;32313;48.722;9.362;2023-08-31T10:59:00;20.80;98.00
46590;DHT22;32313;48.722;9.362;2023-08-31T11:01:58;21.20;96.80
46590;DHT22;32313;48.722;9.362;2023-08-31T11:04:29;21.90;95.20
46590;DHT22;32313;48.722;9.362;2023-08-31T11:07:15;22.60;94.60
46590;DHT22;32313;48.722;9.362;2023-08-31T11:09:41;22.20;94.90
46590;DHT22;32313;48.722;9.362;2023-08-31T11:12:07;22.10;93.50
46590;DHT22;32313;48.722;9.362;2023-08-31T11:14:33;21.90;95.00
46590;DHT22;32313;48.722;9.362;2023-08-31T11:17:00;21.70;94.80
46590;DHT22;32313;48.722;9.362;2023-08-31T11:19:27;21.30;95.40
46590;DHT22;32313;48.722;9.362;2023-08-31T11:21:54;20.80;94.60
46590;DHT22;32313;48.722;9.362;2023-08-31T11:24:20;21.00;94.20
46590;DHT22;32313;48.722;9.362;2023-08-31T11:26:50;20.70;94.90
46590;DHT22;32313;48.722;9.362;2023-08-31T11:29:16;20.50;94.50
46590;DHT22;32313;48.722;9.362;2023-08-31T11:31:42;20.20;95.60
46590;DHT22;32313;48.722;9.362;2023-08-31T11:34:16;20.10;97.10
46590;DHT22;32313;48.722;9.362;2023-08-31T11:36:42;20.00;96.70
46590;DHT22;32313;48.722;9.362;2023-08-31T11:39:12;20.30;96.60
46590;DHT22;32313;48.722;9.362;2023-08-31T11:41:38;21.00;95.00
46590;DHT22;32313;48.722;9.362;2023-08-31T11:44:12;21.50;95.00
46590;DHT22;32313;48.722;9.362;2023-08-31T11:46:39;21.70;95.70
46590;DHT22;32313;48.722;9.362;2023-08-31T11:49:07;22.00;94.60
46590;DHT22;32313;48.722;9.362;2023-08-31T11:51:34;22.70;93.50
46590;DHT22;32313;48.722;9.362;2023-08-31T11:54:04;22.30;91.60
46590;DHT22;32313;48.722;9.362;2023-08-31T11:56:43;21.60;92.80
46590;DHT22;32313;48.722;9.362;2023-08-31T11:59:10;21.70;93.00
46590;DHT22;32313;48.722;9.362;2023-08-31T12:01:38;21.60;92.50
46590;DHT22;32313;48.722;9.362;2023-08-31T12:06:37;21.40;93.80
46590;DHT22;32313;48.722;9.362;2023-08-31T12:09:05;22.10;92.70
46590;DHT22;32313;48.722;9.362;2023-08-31T12:11:31;22.30;92.80
46590;DHT22;32313;48.722;9.362;2023-08-31T12:14:17;22.30;92.50
46590;DHT22;32313;48.722;9.362;2023-08-31T12:16:43;23.00;92.80
46590;DHT22;32313;48.722;9.362;2023-08-31T12:19:09;24.00;90.80
46590;DHT22;32313;48.722;9.362;2023-08-31T12:21:35;24.10;91.30
46590;DHT22;32313;48.722;9.362;2023-08-31T12:24:01;23.70;90.00
46590;DHT22;32313;48.722;9.362;2023-08-31T12:26:29;23.10;90.50
46590;DHT22;32313;48.722;9.362;2023-08-31T12:28:54;22.20;91.00
46590;DHT22;32313;48.722;9.362;2023-08-31T12:31:22;21.40;92.10
46590;DHT22;32313;48.722;9.362;2023-08-31T12:33:47;20.90;92.50
46590;DHT22;32313;48.722;9.362;2023-08-31T12:36:13;20.90;93.00
46590;DHT22;32313;48.722;9.362;2023-08-31T12:38:39;20.80;93.20
46590;DHT22;32313;48.722;9.362;2023-08-31T12:41:05;20.80;93.20
46590;DHT22;32313;48.722;9.362;2023-08-31T12:43:30;20.70;93.00
46590;DHT22;32313;48.722;9.362;2023-08-31T12:45:57;20.70;93.60
46590;DHT22;32313;48.722;9.362;2023-08-31T12:48:23;20.70;93.40
46590;DHT22;32313;48.722;9.362;2023-08-31T12:50:49;20.60;93.50
46590;DHT22;32313;48.722;9.362;2023-08-31T12:53:15;20.60;94.00
46590;DHT22;32313;48.722;9.362;2023-08-31T12:55:41;20.50;93.30
46590;DHT22;32313;48.722;9.362;2023-08-31T12:58:06;20.50;93.50
46590;DHT22;32313;48.722;9.362;2023-08-31T13:00:32;20.50;93.40
46590;DHT22;32313;48.722;9.362;2023-08-31T13:02:59;20.80;93.20
46590;DHT22;32313;48.722;9.362;2023-08-31T13:05:26;21.20;92.80
46590;DHT22;32313;48.722;9.362;2023-08-31T13:07:54;21.10;92.60
46590;DHT22;32313;48.722;9.362;2023-08-31T13:10:20;20.90;92.50
46590;DHT22;32313;48.722;9.362;2023-08-31T13:12:45;20.80;93.00
46590;DHT22;32313;48.722;9.362;2023-08-31T13:15:11;20.80;93.10
46590;DHT22;32313;48.722;9.362;2023-08-31T13:17:38;20.60;93.90
46590;DHT22;32313;48.722;9.362;2023-08-31T13:20:05;20.60;93.60
46590;DHT22;32313;48.722;9.362;2023-08-31T13:22:30;20.40;94.00
46590;DHT22;32313;48.722;9.362;2023-08-31T13:24:57;20.20;93.60
46590;DHT22;32313;48.722;9.362;2023-08-31T13:27:22;20.10;94.00
46590;DHT22;32313;48.722;9.362;2023-08-31T13:29:48;20.00;94.30
46590;DHT22;32313;48.722;9.362;2023-08-31T13:32:14;20.00;95.60
46590;DHT22;32313;48.722;9.362;2023-08-31T13:34:39;20.00;96.20
46590;DHT22;32313;48.722;9.362;2023-08-31T13:37:05;20.10;96.50
46590;DHT22;32313;48.722;9.362;2023-08-31T13:39:33;20.10;96.70
46590;DHT22;32313;48.722;9.362;2023-08-31T13:41:59;20.10;96.50
46590;DHT22;32313;48.722;9.362;2023-08-31T13:44:28;20.00;96.80
46590;DHT22;32313;48.722;9.362;2023-08-31T13:46:53;19.90;96.50
46590;DHT22;32313;48.722;9.362;2023-08-31T13:49:19;19.70;97.20
46590;DHT22;32313;48.722;9.362;2023-08-31T13:51:45;19.60;97.50
46590;DHT22;32313;48.722;9.362;2023-08-31T13:54:11;19.50;97.80
46590;DHT22;32313;48.722;9.362;2023-08-31T13:56:37;19.60;97.70
46590;DHT22;32313;48.722;9.362;2023-08-31T13:59:02;19.80;97.80
46590;DHT22;32313;48.722;9.362;2023-08-31T14:01:30;21.10;96.60
46590;DHT22;32313;48.722;9.362;2023-08-31T14:03:56;22.60;94.90
46590;DHT22;32313;48.722;9.362;2023-08-31T14:06:22;24.00;93.20
46590;DHT22;32313;48.722;9.362;2023-08-31T14:08:47;24.50;91.00
46590;DHT22;32313;48.722;9.362;2023-08-31T14:11:13;23.90;92.00
46590;DHT22;32313;48.722;9.362;2023-08-31T14:13:39;23.90;91.40
46590;DHT22;32313;48.722;9.362;2023-08-31T14:16:06;23.40;91.80
46590;DHT22;32313;48.722;9.362;2023-08-31T14:18:32;22.80;92.20
46590;DHT22;32313;48.722;9.362;2023-08-31T14:20:58;22.30;92.60
46590;DHT22;32313;48.722;9.362;2023-08-31T14:23:25;21.70;92.40
46590;DHT22;32313;48.722;9.362;2023-08-31T14:25:51;21.10;93.60
46590;DHT22;32313;48.722;9.362;2023-08-31T14:28:16;20.70;93.80
46590;DHT22;32313;48.722;9.362;2023-08-31T14:30:42;20.40;94.60
46590;DHT22;32313;48.722;9.362;2023-08-31T14:33:08;20.20;95.30
46590;DHT22;32313;48.722;9.362;2023-08-31T14:35:37;19.90;95.70
46590;DHT22;32313;48.722;9.362;2023-08-31T14:38:03;19.70;96.40
46590;DHT22;32313;48.722;9.362;2023-08-31T14:40:29;19.70;95.70
46590;DHT22;32313;48.722;9.362;2023-08-31T14:42:55;19.80;96.00
46590;DHT22;32313;48.722;9.362;2023-08-31T14:45:20;19.90;96.00
46590;DHT22;32313;48.722;9.362;2023-08-31T14:47:46;20.20;95.20
46590;DHT22;32313;48.722;9.362;2023-08-31T14:50:12;20.30;95.80
46590;DHT22;32313;48.722;9.362;2023-08-31T14:52:38;20.30;96.20
46590;DHT22;32313;48.722;9.362;2023-08-31T14:55:04;20.30;96.40
46590;DHT22;32313;48.722;9.362;2023-08-31T14:57:30;20.40;96.10
46590;DHT22;32313;48.722;9.362;2023-08-31T14:59:56;20.30;96.40
46590;DHT22;32313;48.722;9.362;2023-08-31T15:02:24;20.60;96.10
46590;DHT22;32313;48.722;9.362;2023-08-31T15:04:50;21.20;94.90
46590;DHT22;32313;48.722;9.362;2023-08-31T15:07:16;21.40;95.60
46590;DHT22;32313;48.722;9.362;2023-08-31T15:09:42;21.40;95.00
46590;DHT22;32313;48.722;9.362;2023-08-31T15:12:08;21.30;95.80
46590;DHT22;32313;48.722;9.362;2023-08-31T15:14:34;21.30;95.60
46590;DHT22;32313;48.722;9.362;2023-08-31T15:17:00;21.40;95.50
46590;DHT22;32313;48.722;9.362;2023-08-31T15:19:25;21.30;95.50
46590;DHT22;32313;48.722;9.362;2023-08-31T15:21:51;21.10;95.30
46590;DHT22;32313;48.722;9.362;2023-08-31T15:24:17;20.90;95.90
46590;DHT22;32313;48.722;9.362;2023-08-31T15:26:42;20.60;95.70
46590;DHT22;32313;48.722;9.362;2023-08-31T15:29:11;20.30;95.90
46590;DHT22;32313;48.722;9.362;2023-08-31T15:31:37;20.20;97.00
46590;DHT22;32313;48.722;9.362;2023-08-31T15:34:02;20.00;98.10
46590;DHT22;32313;48.722;9.362;2023-08-31T15:36:29;19.90;98.70
46590;DHT22;32313;48.722;9.362;2023-08-31T15:38:54;19.70;97.80
46590;DHT22;32313;48.722;9.362;2023-08-31T15:41:20;19.70;97.40
46590;DHT22;32313;48.722;9.362;2023-08-31T15:43:46;19.70;97.80
46590;DHT22;32313;48.722;9.362;2023-08-31T15:46:11;19.70;98.00